sensor_id;sensor_type;location;lat;lon;timestamp;pressure;altitude;pressure_sealevel;temperature;humidity
62436;BME280;48480;50.252;18.848;2022-07-03T00:02:12;99279.33;;;16.22;76.95
62436;BME280;48480;50.252;18.848;2022-07-03T00:04:39;99275.44;;;16.19;77.07
62436;BME280;48480;50.252;18.848;2022-07-03T00:07:06;99274.77;;;16.18;77.13
62436;BME280;48480;50.252;18.848;2022-07-03T00:09:33;99274.95;;;16.19;77.12
62436;BME280;48480;50.252;18.848;2022-07-03T00:11:59;99273.63;;;16.18;77.01
62436;BME280;48480;50.252;18.848;2022-07-03T00:14:26;99276.13;;;16.17;77.24
62436;BME280;48480;50.252;18.848;2022-07-03T00:16:52;99270.98;;;16.15;77.39
62436;BME280;48480;50.252;18.848;2022-07-03T00:19:19;99272.88;;;16.12;77.37
62436;BME280;48480;50.252;18.848;2022-07-03T00:21:53;99277.88;;;16.09;77.34
62436;BME280;48480;50.252;18.848;2022-07-03T00:24:26;99282.31;;;16.08;77.48
62436;BME280;48480;50.252;18.848;2022-07-03T00:26:55;99280.84;;;16.04;77.79
62436;BME280;48480;50.252;18.848;2022-07-03T00:29:29;99282.75;;;15.99;77.76
62436;BME280;48480;50.252;18.848;2022-07-03T00:31:57;99283.42;;;15.98;77.82
62436;BME280;48480;50.252;18.848;2022-07-03T00:34:24;99282.86;;;16.00;77.87
62436;BME280;48480;50.252;18.848;2022-07-03T00:36:52;99283.32;;;15.97;78.01
62436;BME280;48480;50.252;18.848;2022-07-03T00:39:19;99286.02;;;15.95;78.13
62436;BME280;48480;50.252;18.848;2022-07-03T00:41:46;99284.92;;;15.92;78.24
62436;BME280;48480;50.252;18.848;2022-07-03T00:44:12;99280.20;;;15.90;78.22
62436;BME280;48480;50.252;18.848;2022-07-03T00:46:41;99283.59;;;15.88;78.53
62436;BME280;48480;50.252;18.848;2022-07-03T00:49:09;99285.19;;;15.83;78.66
62436;BME280;48480;50.252;18.848;2022-07-03T00:51:39;99283.79;;;15.83;78.59
62436;BME280;48480;50.252;18.848;2022-07-03T00:54:16;99283.06;;;15.83;78.55
62436;BME280;48480;50.252;18.848;2022-07-03T00:56:51;99280.63;;;15.81;78.69
62436;BME280;48480;50.252;18.848;2022-07-03T00:59:19;99278.70;;;15.79;78.69
62436;BME280;48480;50.252;18.848;2022-07-03T01:01:47;99279.77;;;15.76;78.67
62436;BME280;48480;50.252;18.848;2022-07-03T01:04:21;99275.48;;;15.75;78.76
62436;BME280;48480;50.252;18.848;2022-07-03T01:06:52;99268.60;;;15.77;78.61
62436;BME280;48480;50.252;18.848;2022-07-03T01:09:29;99263.57;;;15.75;78.75
62436;BME280;48480;50.252;18.848;2022-07-03T01:12:03;99255.91;;;15.67;78.89
62436;BME280;48480;50.252;18.848;2022-07-03T01:14:43;99252.12;;;15.67;78.99
62436;BME280;48480;50.252;18.848;2022-07-03T01:17:22;99251.59;;;15.65;78.98
62436;BME280;48480;50.252;18.848;2022-07-03T01:19:57;99254.51;;;15.63;79.14
62436;BME280;48480;50.252;18.848;2022-07-03T01:22:36;99257.48;;;15.59;79.34
62436;BME280;48480;50.252;18.848;2022-07-03T01:28:21;99255.16;;;15.62;79.43
62436;BME280;48480;50.252;18.848;2022-07-03T01:30:52;99257.91;;;15.63;79.38
62436;BME280;48480;50.252;18.848;2022-07-03T01:33:27;99259.91;;;15.63;79.28
62436;BME280;48480;50.252;18.848;2022-07-03T01:36:05;99261.37;;;15.68;79.18
62436;BME280;48480;50.252;18.848;2022-07-03T01:38:36;99258.48;;;15.72;79.01
62436;BME280;48480;50.252;18.848;2022-07-03T01:41:06;99255.05;;;15.73;78.83
62436;BME280;48480;50.252;18.848;2022-07-03T01:43:38;99252.65;;;15.78;78.89
62436;BME280;48480;50.252;18.848;2022-07-03T01:46:05;99250.87;;;15.85;78.65
62436;BME280;48480;50.252;18.848;2022-07-03T01:48:34;99233.78;;;15.83;78.49
62436;BME280;48480;50.252;18.848;2022-07-03T01:51:02;99237.54;;;15.92;78.38
62436;BME280;48480;50.252;18.848;2022-07-03T01:53:30;99237.25;;;15.97;78.24
62436;BME280;48480;50.252;18.848;2022-07-03T01:56:01;99236.05;;;16.01;78.07
62436;BME280;48480;50.252;18.848;2022-07-03T01:58:29;99232.46;;;16.07;77.95
62436;BME280;48480;50.252;18.848;2022-07-03T02:01:30;99230.52;;;16.12;77.85
62436;BME280;48480;50.252;18.848;2022-07-03T02:04:05;99228.70;;;16.14;77.48
62436;BME280;48480;50.252;18.848;2022-07-03T02:06:40;99226.92;;;16.09;77.59
62436;BME280;48480;50.252;18.848;2022-07-03T02:09:08;99229.75;;;16.08;77.59
62436;BME280;48480;50.252;18.848;2022-07-03T02:11:43;99229.52;;;16.08;77.46
62436;BME280;48480;50.252;18.848;2022-07-03T02:14:18;99234.61;;;16.08;77.45
62436;BME280;48480;50.252;18.848;2022-07-03T02:17:17;99232.17;;;16.09;77.37
62436;BME280;48480;50.252;18.848;2022-07-03T02:19:55;99234.20;;;16.09;77.32
62436;BME280;48480;50.252;18.848;2022-07-03T02:22:32;99235.40;;;16.09;77.27
62436;BME280;48480;50.252;18.848;2022-07-03T02:25:07;99232.23;;;16.08;77.30
62436;BME280;48480;50.252;18.848;2022-07-03T02:28:03;99232.77;;;16.06;77.38
62436;BME280;48480;50.252;18.848;2022-07-03T02:30:34;99230.04;;;15.98;77.46
62436;BME280;48480;50.252;18.848;2022-07-03T02:33:02;99223.72;;;15.91;77.76
62436;BME280;48480;50.252;18.848;2022-07-03T02:35:32;99213.27;;;15.82;77.96
62436;BME280;48480;50.252;18.848;2022-07-03T02:38:15;99216.09;;;15.76;78.19
62436;BME280;48480;50.252;18.848;2022-07-03T02:40:47;99219.77;;;15.70;78.49
62436;BME280;48480;50.252;18.848;2022-07-03T02:46:12;99220.39;;;15.64;78.67
62436;BME280;48480;50.252;18.848;2022-07-03T02:52:04;99224.73;;;15.74;78.64
62436;BME280;48480;50.252;18.848;2022-07-03T02:54:44;99219.64;;;15.76;78.59
62436;BME280;48480;50.252;18.848;2022-07-03T02:57:13;99219.50;;;15.76;78.61
62436;BME280;48480;50.252;18.848;2022-07-03T02:59:55;99220.91;;;15.79;78.63
62436;BME280;48480;50.252;18.848;2022-07-03T03:04:58;99203.45;;;15.80;78.35
62436;BME280;48480;50.252;18.848;2022-07-03T03:07:31;99218.98;;;15.90;78.33
62436;BME280;48480;50.252;18.848;2022-07-03T03:10:00;99216.73;;;15.90;78.42
62436;BME280;48480;50.252;18.848;2022-07-03T03:12:31;99208.98;;;15.89;78.41
62436;BME280;48480;50.252;18.848;2022-07-03T03:15:04;99207.11;;;15.84;78.45
62436;BME280;48480;50.252;18.848;2022-07-03T03:17:39;99207.19;;;15.80;78.62
62436;BME280;48480;50.252;18.848;2022-07-03T03:20:08;99206.00;;;15.77;78.66
62436;BME280;48480;50.252;18.848;2022-07-03T03:25:21;99214.35;;;15.82;78.66
62436;BME280;48480;50.252;18.848;2022-07-03T03:27:48;99211.13;;;15.84;78.69
62436;BME280;48480;50.252;18.848;2022-07-03T03:30:15;99213.79;;;15.87;78.70
62436;BME280;48480;50.252;18.848;2022-07-03T03:32:41;99209.52;;;15.89;78.53
62436;BME280;48480;50.252;18.848;2022-07-03T03:35:11;99217.00;;;15.98;78.46
62436;BME280;48480;50.252;18.848;2022-07-03T03:37:37;99216.79;;;16.02;78.37
62436;BME280;48480;50.252;18.848;2022-07-03T03:40:05;99222.73;;;16.06;78.26
62436;BME280;48480;50.252;18.848;2022-07-03T03:42:32;99216.15;;;16.09;78.29
62436;BME280;48480;50.252;18.848;2022-07-03T03:44:58;99211.05;;;16.08;78.35
62436;BME280;48480;50.252;18.848;2022-07-03T03:47:25;99211.20;;;16.11;78.34
62436;BME280;48480;50.252;18.848;2022-07-03T03:49:52;99207.03;;;16.16;78.28
62436;BME280;48480;50.252;18.848;2022-07-03T03:52:18;99184.36;;;16.14;78.29
62436;BME280;48480;50.252;18.848;2022-07-03T03:54:45;99192.91;;;16.21;78.19
62436;BME280;48480;50.252;18.848;2022-07-03T03:59:43;99192.34;;;16.20;78.30
62436;BME280;48480;50.252;18.848;2022-07-03T04:02:09;99195.44;;;16.20;78.33
62436;BME280;48480;50.252;18.848;2022-07-03T04:04:36;99198.08;;;16.23;78.33
62436;BME280;48480;50.252;18.848;2022-07-03T04:07:02;99193.27;;;16.22;78.34
62436;BME280;48480;50.252;18.848;2022-07-03T04:09:29;99198.98;;;16.31;78.34
62436;BME280;48480;50.252;18.848;2022-07-03T04:11:56;99198.27;;;16.38;78.43
62436;BME280;48480;50.252;18.848;2022-07-03T04:14:23;99195.59;;;16.43;78.28
62436;BME280;48480;50.252;18.848;2022-07-03T04:16:50;99196.41;;;16.50;78.26
62436;BME280;48480;50.252;18.848;2022-07-03T04:19:17;99195.75;;;16.57;78.24
62436;BME280;48480;50.252;18.848;2022-07-03T04:21:44;99196.19;;;16.68;78.18
62436;BME280;48480;50.252;18.848;2022-07-03T04:24:10;99182.35;;;16.74;77.95
62436;BME280;48480;50.252;18.848;2022-07-03T04:26:37;99187.45;;;16.87;77.55
62436;BME280;48480;50.252;18.848;2022-07-03T04:29:03;99185.47;;;16.94;77.67
62436;BME280;48480;50.252;18.848;2022-07-03T04:31:30;99194.99;;;17.08;77.38
62436;BME280;48480;50.252;18.848;2022-07-03T04:33:57;99192.51;;;17.21;77.00
62436;BME280;48480;50.252;18.848;2022-07-03T04:36:23;99192.11;;;17.42;76.58
62436;BME280;48480;50.252;18.848;2022-07-03T04:38:50;99188.55;;;17.53;76.27
62436;BME280;48480;50.252;18.848;2022-07-03T04:41:17;99179.72;;;17.54;76.02
62436;BME280;48480;50.252;18.848;2022-07-03T04:43:44;99187.52;;;17.55;75.75
62436;BME280;48480;50.252;18.848;2022-07-03T04:46:10;99190.06;;;17.55;75.73
62436;BME280;48480;50.252;18.848;2022-07-03T04:48:38;99190.52;;;17.57;75.65
62436;BME280;48480;50.252;18.848;2022-07-03T04:51:04;99183.30;;;17.54;75.74
62436;BME280;48480;50.252;18.848;2022-07-03T04:53:31;99182.73;;;17.56;75.57
62436;BME280;48480;50.252;18.848;2022-07-03T04:55:58;99183.95;;;17.60;75.53
62436;BME280;48480;50.252;18.848;2022-07-03T04:58:24;99189.02;;;17.66;75.21
62436;BME280;48480;50.252;18.848;2022-07-03T05:00:51;99184.48;;;17.63;75.25
62436;BME280;48480;50.252;18.848;2022-07-03T05:03:18;99182.34;;;17.61;75.27
62436;BME280;48480;50.252;18.848;2022-07-03T05:05:44;99187.62;;;17.62;75.36
62436;BME280;48480;50.252;18.848;2022-07-03T05:08:11;99189.83;;;17.65;75.23
62436;BME280;48480;50.252;18.848;2022-07-03T05:10:37;99189.14;;;17.68;75.20
62436;BME280;48480;50.252;18.848;2022-07-03T05:13:04;99187.84;;;17.66;75.13
62436;BME280;48480;50.252;18.848;2022-07-03T05:15:31;99183.60;;;17.61;75.14
62436;BME280;48480;50.252;18.848;2022-07-03T05:17:57;99179.80;;;17.72;75.31
62436;BME280;48480;50.252;18.848;2022-07-03T05:20:23;99180.60;;;18.16;74.79
62436;BME280;48480;50.252;18.848;2022-07-03T05:22:51;99177.45;;;18.32;74.09
62436;BME280;48480;50.252;18.848;2022-07-03T05:25:19;99181.27;;;18.39;73.62
62436;BME280;48480;50.252;18.848;2022-07-03T05:27:47;99179.13;;;18.53;73.48
62436;BME280;48480;50.252;18.848;2022-07-03T05:30:13;99185.40;;;18.68;73.32
62436;BME280;48480;50.252;18.848;2022-07-03T05:32:40;99185.54;;;18.84;72.64
62436;BME280;48480;50.252;18.848;2022-07-03T05:35:07;99181.41;;;18.93;72.09
62436;BME280;48480;50.252;18.848;2022-07-03T05:37:33;99181.52;;;19.01;71.92
62436;BME280;48480;50.252;18.848;2022-07-03T05:40:00;99175.52;;;19.14;71.58
62436;BME280;48480;50.252;18.848;2022-07-03T05:42:27;99184.96;;;19.34;71.10
62436;BME280;48480;50.252;18.848;2022-07-03T05:44:53;99186.42;;;19.52;70.57
62436;BME280;48480;50.252;18.848;2022-07-03T05:47:20;99191.03;;;19.68;70.09
62436;BME280;48480;50.252;18.848;2022-07-03T05:49:47;99190.55;;;19.90;69.40
62436;BME280;48480;50.252;18.848;2022-07-03T05:52:14;99192.08;;;20.27;68.55
62436;BME280;48480;50.252;18.848;2022-07-03T05:54:40;99192.71;;;20.59;67.34
62436;BME280;48480;50.252;18.848;2022-07-03T05:57:07;99189.04;;;20.87;67.10
62436;BME280;48480;50.252;18.848;2022-07-03T05:59:34;99195.61;;;21.26;66.15
62436;BME280;48480;50.252;18.848;2022-07-03T06:02:01;99191.79;;;21.68;64.63
62436;BME280;48480;50.252;18.848;2022-07-03T06:04:28;99188.81;;;22.07;63.88
62436;BME280;48480;50.252;18.848;2022-07-03T06:06:54;99184.91;;;22.59;62.80
62436;BME280;48480;50.252;18.848;2022-07-03T06:09:22;99182.08;;;23.07;61.22
62436;BME280;48480;50.252;18.848;2022-07-03T06:11:49;99182.70;;;23.53;60.34
62436;BME280;48480;50.252;18.848;2022-07-03T06:14:16;99179.36;;;23.97;59.02
62436;BME280;48480;50.252;18.848;2022-07-03T06:16:43;99180.39;;;24.56;57.78
62436;BME280;48480;50.252;18.848;2022-07-03T06:19:09;99183.33;;;25.08;55.68
62436;BME280;48480;50.252;18.848;2022-07-03T06:21:36;99174.95;;;25.39;53.95
62436;BME280;48480;50.252;18.848;2022-07-03T06:24:03;99170.69;;;25.66;53.22
62436;BME280;48480;50.252;18.848;2022-07-03T06:26:30;99171.26;;;25.94;52.55
62436;BME280;48480;50.252;18.848;2022-07-03T06:28:57;99166.20;;;26.22;51.82
62436;BME280;48480;50.252;18.848;2022-07-03T06:31:23;99164.39;;;26.54;50.58
62436;BME280;48480;50.252;18.848;2022-07-03T06:33:50;99160.71;;;26.74;49.80
62436;BME280;48480;50.252;18.848;2022-07-03T06:36:17;99160.02;;;26.78;49.06
62436;BME280;48480;50.252;18.848;2022-07-03T06:38:43;99165.61;;;26.70;47.74
62436;BME280;48480;50.252;18.848;2022-07-03T06:41:10;99169.08;;;26.49;48.64
62436;BME280;48480;50.252;18.848;2022-07-03T06:43:37;99164.01;;;26.45;49.40
62436;BME280;48480;50.252;18.848;2022-07-03T06:46:03;99158.81;;;26.54;49.22
62436;BME280;48480;50.252;18.848;2022-07-03T06:48:30;99153.89;;;26.51;49.04
62436;BME280;48480;50.252;18.848;2022-07-03T06:50:57;99149.85;;;26.36;48.52
62436;BME280;48480;50.252;18.848;2022-07-03T06:53:23;99150.65;;;26.13;48.46
62436;BME280;48480;50.252;18.848;2022-07-03T06:55:50;99160.71;;;25.80;48.84
62436;BME280;48480;50.252;18.848;2022-07-03T06:58:16;99157.65;;;25.65;49.18
62436;BME280;48480;50.252;18.848;2022-07-03T07:00:43;99153.63;;;25.72;49.30
62436;BME280;48480;50.252;18.848;2022-07-03T07:03:12;99149.77;;;26.00;49.18
62436;BME280;48480;50.252;18.848;2022-07-03T07:05:38;99145.01;;;26.31;48.94
62436;BME280;48480;50.252;18.848;2022-07-03T07:08:05;99146.40;;;26.45;47.96
62436;BME280;48480;50.252;18.848;2022-07-03T07:10:32;99137.79;;;26.61;47.57
62436;BME280;48480;50.252;18.848;2022-07-03T07:12:58;99102.52;;;26.59;47.15
62436;BME280;48480;50.252;18.848;2022-07-03T07:15:25;99143.84;;;26.87;46.79
62436;BME280;48480;50.252;18.848;2022-07-03T07:17:52;99139.91;;;26.78;46.92
62436;BME280;48480;50.252;18.848;2022-07-03T07:20:19;99132.95;;;26.90;46.75
62436;BME280;48480;50.252;18.848;2022-07-03T07:22:46;99135.27;;;26.95;46.23
62436;BME280;48480;50.252;18.848;2022-07-03T07:25:12;99130.13;;;26.81;46.38
62436;BME280;48480;50.252;18.848;2022-07-03T07:27:39;99132.34;;;26.54;46.77
62436;BME280;48480;50.252;18.848;2022-07-03T07:30:06;99119.88;;;26.21;46.93
62436;BME280;48480;50.252;18.848;2022-07-03T07:32:33;99125.52;;;26.01;47.11
62436;BME280;48480;50.252;18.848;2022-07-03T07:35:01;99125.43;;;25.88;47.62
62436;BME280;48480;50.252;18.848;2022-07-03T07:37:29;99124.18;;;25.84;47.29
62436;BME280;48480;50.252;18.848;2022-07-03T07:39:56;99122.27;;;26.07;47.36
62436;BME280;48480;50.252;18.848;2022-07-03T07:42:22;99121.88;;;26.46;47.00
62436;BME280;48480;50.252;18.848;2022-07-03T07:44:50;99120.70;;;26.96;46.25
62436;BME280;48480;50.252;18.848;2022-07-03T07:47:17;99121.66;;;27.43;44.96
62436;BME280;48480;50.252;18.848;2022-07-03T07:49:44;99117.98;;;27.65;44.12
62436;BME280;48480;50.252;18.848;2022-07-03T07:52:11;99112.15;;;27.43;44.11
62436;BME280;48480;50.252;18.848;2022-07-03T07:54:38;99112.98;;;27.26;43.85
62436;BME280;48480;50.252;18.848;2022-07-03T07:57:07;99113.70;;;26.81;44.64
62436;BME280;48480;50.252;18.848;2022-07-03T07:59:36;99106.10;;;26.35;45.16
62436;BME280;48480;50.252;18.848;2022-07-03T08:02:05;99111.42;;;26.05;46.27
62436;BME280;48480;50.252;18.848;2022-07-03T08:04:50;99113.14;;;25.96;46.83
62436;BME280;48480;50.252;18.848;2022-07-03T08:07:36;99116.45;;;25.80;46.43
62436;BME280;48480;50.252;18.848;2022-07-03T08:10:03;99116.08;;;25.60;46.78
62436;BME280;48480;50.252;18.848;2022-07-03T08:12:30;99115.31;;;25.75;46.92
62436;BME280;48480;50.252;18.848;2022-07-03T08:15:00;99101.12;;;25.72;46.97
62436;BME280;48480;50.252;18.848;2022-07-03T08:17:31;99099.73;;;25.94;47.09
62436;BME280;48480;50.252;18.848;2022-07-03T08:19:58;99112.48;;;26.32;47.12
62436;BME280;48480;50.252;18.848;2022-07-03T08:22:25;99117.05;;;26.59;46.82
62436;BME280;48480;50.252;18.848;2022-07-03T08:24:55;99115.45;;;26.63;46.16
62436;BME280;48480;50.252;18.848;2022-07-03T08:27:22;99115.79;;;26.50;45.80
62436;BME280;48480;50.252;18.848;2022-07-03T08:29:51;99117.16;;;26.35;45.94
62436;BME280;48480;50.252;18.848;2022-07-03T08:32:18;99114.35;;;26.25;46.29
62436;BME280;48480;50.252;18.848;2022-07-03T08:34:46;99109.23;;;26.26;46.62
62436;BME280;48480;50.252;18.848;2022-07-03T08:37:14;99092.31;;;26.09;45.89
62436;BME280;48480;50.252;18.848;2022-07-03T08:39:43;99106.95;;;25.93;46.13
62436;BME280;48480;50.252;18.848;2022-07-03T08:42:11;99103.15;;;26.00;46.87
62436;BME280;48480;50.252;18.848;2022-07-03T08:44:39;99101.85;;;26.24;46.72
62436;BME280;48480;50.252;18.848;2022-07-03T08:47:07;99105.81;;;26.48;46.43
62436;BME280;48480;50.252;18.848;2022-07-03T08:49:38;99109.86;;;26.53;45.75
62436;BME280;48480;50.252;18.848;2022-07-03T08:52:06;99107.52;;;26.34;45.77
62436;BME280;48480;50.252;18.848;2022-07-03T08:54:37;99091.02;;;26.21;46.31
62436;BME280;48480;50.252;18.848;2022-07-03T08:57:05;99107.95;;;26.29;45.61
62436;BME280;48480;50.252;18.848;2022-07-03T08:59:37;99105.95;;;26.13;46.16
62436;BME280;48480;50.252;18.848;2022-07-03T09:02:04;99111.77;;;26.23;46.31
62436;BME280;48480;50.252;18.848;2022-07-03T09:04:32;99110.71;;;26.38;46.03
62436;BME280;48480;50.252;18.848;2022-07-03T09:07:00;99110.58;;;26.41;46.08
62436;BME280;48480;50.252;18.848;2022-07-03T09:09:27;99105.34;;;26.49;45.94
62436;BME280;48480;50.252;18.848;2022-07-03T09:11:53;99104.66;;;26.47;44.96
62436;BME280;48480;50.252;18.848;2022-07-03T09:14:20;99095.20;;;26.31;44.86
62436;BME280;48480;50.252;18.848;2022-07-03T09:16:50;99089.04;;;26.16;45.20
62436;BME280;48480;50.252;18.848;2022-07-03T09:22:31;99102.55;;;26.28;45.87
62436;BME280;48480;50.252;18.848;2022-07-03T09:25:10;99071.48;;;26.04;45.33
62436;BME280;48480;50.252;18.848;2022-07-03T09:28:11;99102.17;;;26.24;45.14
62436;BME280;48480;50.252;18.848;2022-07-03T09:30:55;99093.15;;;26.14;44.99
62436;BME280;48480;50.252;18.848;2022-07-03T09:33:23;99097.98;;;26.18;44.87
62436;BME280;48480;50.252;18.848;2022-07-03T09:35:54;99063.98;;;26.07;44.71
62436;BME280;48480;50.252;18.848;2022-07-03T09:38:22;99085.23;;;26.49;45.25
62436;BME280;48480;50.252;18.848;2022-07-03T09:40:54;99066.21;;;26.78;44.98
62436;BME280;48480;50.252;18.848;2022-07-03T09:43:33;99067.74;;;27.26;44.17
62436;BME280;48480;50.252;18.848;2022-07-03T09:46:04;99089.30;;;27.56;43.43
62436;BME280;48480;50.252;18.848;2022-07-03T09:48:36;99085.34;;;27.46;43.29
62436;BME280;48480;50.252;18.848;2022-07-03T09:56:22;99037.27;;;28.17;42.40
62436;BME280;48480;50.252;18.848;2022-07-03T10:01:31;99050.70;;;28.61;40.64
62436;BME280;48480;50.252;18.848;2022-07-03T10:04:18;99035.60;;;28.27;40.92
62436;BME280;48480;50.252;18.848;2022-07-03T10:06:57;99058.58;;;28.24;41.87
62436;BME280;48480;50.252;18.848;2022-07-03T10:09:31;99061.23;;;28.21;41.95
62436;BME280;48480;50.252;18.848;2022-07-03T10:12:03;99060.64;;;28.27;41.76
62436;BME280;48480;50.252;18.848;2022-07-03T10:14:32;99059.67;;;28.39;41.68
62436;BME280;48480;50.252;18.848;2022-07-03T10:17:00;99057.09;;;28.52;41.48
62436;BME280;48480;50.252;18.848;2022-07-03T10:19:30;99055.23;;;28.83;41.19
62436;BME280;48480;50.252;18.848;2022-07-03T10:22:09;99054.45;;;29.23;40.56
62436;BME280;48480;50.252;18.848;2022-07-03T10:24:42;99057.93;;;29.59;39.99
62436;BME280;48480;50.252;18.848;2022-07-03T10:27:14;99046.77;;;29.72;38.74
62436;BME280;48480;50.252;18.848;2022-07-03T10:29:45;99025.25;;;29.89;38.76
62436;BME280;48480;50.252;18.848;2022-07-03T10:32:16;99047.98;;;30.31;38.03
62436;BME280;48480;50.252;18.848;2022-07-03T10:34:45;99046.05;;;30.46;37.56
62436;BME280;48480;50.252;18.848;2022-07-03T10:37:33;99042.16;;;30.52;37.23
62436;BME280;48480;50.252;18.848;2022-07-03T10:43:15;99011.63;;;30.04;37.25
62436;BME280;48480;50.252;18.848;2022-07-03T10:46:54;99011.44;;;30.14;37.02
62436;BME280;48480;50.252;18.848;2022-07-03T10:50:02;99042.66;;;30.63;36.39
62436;BME280;48480;50.252;18.848;2022-07-03T10:52:29;99041.24;;;30.69;36.34
62436;BME280;48480;50.252;18.848;2022-07-03T10:54:56;99038.70;;;30.72;36.14
62436;BME280;48480;50.252;18.848;2022-07-03T10:57:28;99034.43;;;30.80;36.25
62436;BME280;48480;50.252;18.848;2022-07-03T10:59:56;99034.70;;;30.74;36.16
62436;BME280;48480;50.252;18.848;2022-07-03T11:07:43;99022.45;;;30.32;36.58
62436;BME280;48480;50.252;18.848;2022-07-03T11:25:59;99006.40;;;28.84;37.39
62436;BME280;48480;50.252;18.848;2022-07-03T11:34:00;99007.45;;;28.36;38.40
62436;BME280;48480;50.252;18.848;2022-07-03T11:36:48;98930.54;;;27.89;38.84
62436;BME280;48480;50.252;18.848;2022-07-03T11:39:21;98970.58;;;28.19;38.55
62436;BME280;48480;50.252;18.848;2022-07-03T11:41:58;98973.23;;;28.25;38.10
62436;BME280;48480;50.252;18.848;2022-07-03T11:44:29;98970.19;;;28.15;38.49
62436;BME280;48480;50.252;18.848;2022-07-03T11:47:02;98993.17;;;28.29;38.48
62436;BME280;48480;50.252;18.848;2022-07-03T11:49:29;98988.66;;;28.34;38.45
62436;BME280;48480;50.252;18.848;2022-07-03T11:52:05;98990.67;;;28.32;38.43
62436;BME280;48480;50.252;18.848;2022-07-03T11:54:55;98973.69;;;28.13;38.34
62436;BME280;48480;50.252;18.848;2022-07-03T11:57:30;98955.53;;;27.92;38.62
62436;BME280;48480;50.252;18.848;2022-07-03T12:00:04;98941.13;;;27.91;38.70
62436;BME280;48480;50.252;18.848;2022-07-03T12:02:51;98978.32;;;28.26;38.57
62436;BME280;48480;50.252;18.848;2022-07-03T12:05:20;98984.80;;;28.43;37.97
62436;BME280;48480;50.252;18.848;2022-07-03T12:08:05;98983.31;;;28.55;37.30
62436;BME280;48480;50.252;18.848;2022-07-03T12:10:39;98979.70;;;28.75;37.73
62436;BME280;48480;50.252;18.848;2022-07-03T12:13:22;98977.91;;;28.96;37.46
62436;BME280;48480;50.252;18.848;2022-07-03T12:16:04;98969.47;;;28.92;36.99
62436;BME280;48480;50.252;18.848;2022-07-03T12:18:48;98973.59;;;28.95;37.32
62436;BME280;48480;50.252;18.848;2022-07-03T12:21:24;98968.88;;;28.91;37.82
62436;BME280;48480;50.252;18.848;2022-07-03T12:23:57;98964.30;;;28.95;37.62
62436;BME280;48480;50.252;18.848;2022-07-03T12:26:35;98965.21;;;29.03;37.06
62436;BME280;48480;50.252;18.848;2022-07-03T12:29:17;98967.41;;;29.04;37.08
62436;BME280;48480;50.252;18.848;2022-07-03T12:31:46;98963.50;;;29.10;36.76
62436;BME280;48480;50.252;18.848;2022-07-03T12:34:19;98959.89;;;29.05;36.68
62436;BME280;48480;50.252;18.848;2022-07-03T12:37:00;98900.63;;;28.69;36.88
62436;BME280;48480;50.252;18.848;2022-07-03T12:39:49;98924.64;;;28.87;37.15
62436;BME280;48480;50.252;18.848;2022-07-03T12:42:28;98954.13;;;28.98;36.78
62436;BME280;48480;50.252;18.848;2022-07-03T12:45:02;98923.13;;;28.61;37.05
62436;BME280;48480;50.252;18.848;2022-07-03T12:47:44;98936.39;;;28.53;37.35
62436;BME280;48480;50.252;18.848;2022-07-03T12:50:12;98952.67;;;28.62;37.22
62436;BME280;48480;50.252;18.848;2022-07-03T12:53:01;98923.45;;;28.32;37.29
62436;BME280;48480;50.252;18.848;2022-07-03T12:55:34;98916.42;;;28.28;37.82
62436;BME280;48480;50.252;18.848;2022-07-03T12:58:30;98944.59;;;28.51;37.97
62436;BME280;48480;50.252;18.848;2022-07-03T13:01:32;98934.31;;;28.53;37.68
62436;BME280;48480;50.252;18.848;2022-07-03T13:04:12;98913.08;;;28.51;37.79
62436;BME280;48480;50.252;18.848;2022-07-03T13:06:47;98932.09;;;28.69;37.49
62436;BME280;48480;50.252;18.848;2022-07-03T13:09:31;98920.84;;;28.64;37.77
62436;BME280;48480;50.252;18.848;2022-07-03T13:12:04;98919.83;;;28.68;37.78
62436;BME280;48480;50.252;18.848;2022-07-03T13:14:38;98894.38;;;28.60;38.07
62436;BME280;48480;50.252;18.848;2022-07-03T13:17:10;98925.10;;;28.83;38.03
62436;BME280;48480;50.252;18.848;2022-07-03T13:19:37;98921.73;;;28.82;37.84
62436;BME280;48480;50.252;18.848;2022-07-03T13:22:07;98920.68;;;28.80;37.73
62436;BME280;48480;50.252;18.848;2022-07-03T13:24:36;98919.16;;;28.77;37.22
62436;BME280;48480;50.252;18.848;2022-07-03T13:27:08;98913.95;;;28.73;37.42
62436;BME280;48480;50.252;18.848;2022-07-03T13:29:43;98892.98;;;28.58;37.57
62436;BME280;48480;50.252;18.848;2022-07-03T13:32:10;98910.95;;;28.70;37.45
62436;BME280;48480;50.252;18.848;2022-07-03T13:34:43;98896.03;;;28.63;37.74
62436;BME280;48480;50.252;18.848;2022-07-03T13:37:14;98879.81;;;28.58;37.56
62436;BME280;48480;50.252;18.848;2022-07-03T13:39:53;98882.41;;;28.63;37.04
62436;BME280;48480;50.252;18.848;2022-07-03T13:42:29;98882.09;;;28.66;37.39
62436;BME280;48480;50.252;18.848;2022-07-03T13:44:58;98877.85;;;28.62;37.41
62436;BME280;48480;50.252;18.848;2022-07-03T13:47:26;98881.70;;;28.74;37.02
62436;BME280;48480;50.252;18.848;2022-07-03T13:50:00;98871.23;;;28.65;37.44
62436;BME280;48480;50.252;18.848;2022-07-03T13:52:35;98839.48;;;28.42;37.08
62436;BME280;48480;50.252;18.848;2022-07-03T13:55:08;98898.77;;;28.79;37.07
62436;BME280;48480;50.252;18.848;2022-07-03T13:57:45;98898.54;;;28.82;37.41
62436;BME280;48480;50.252;18.848;2022-07-03T14:00:16;98901.99;;;28.83;37.39
62436;BME280;48480;50.252;18.848;2022-07-03T14:02:44;98888.47;;;28.78;37.16
62436;BME280;48480;50.252;18.848;2022-07-03T14:05:11;98896.55;;;28.93;37.30
62436;BME280;48480;50.252;18.848;2022-07-03T14:07:38;98896.98;;;29.06;37.11
62436;BME280;48480;50.252;18.848;2022-07-03T14:10:05;98902.48;;;29.19;36.82